Terminal Aerodrome Forecast
Issued by NWS Wilmington, NC

Home | Current Version | Previous Version | Text Only | Print | Product List | Glossary On
Versions: 1 2 3 4 5 6 7 8 9 10 11 12 13 14 15 16
484
FTUS42 KILM 240520
TAFMYR
TAF
KMYR 240520Z 2406/2506 21015G20KT P6SM SCT200
     FM240900 22016KT P6SM BKN040
     FM241800 22013KT P6SM SCT040 PROB30 2419/2422 4SM TSRA BKN050CB
     FM242200 22013KT P6SM SHRA VCTS BKN050CB
      AMD LTD TO CLD VIS AND WIND TIL 241100=

USA.gov is the U.S. government's official web portal to all federal, state and local government web resources and services.